80VA weather

Holly Springs Airport
Richmond, Virginia, United States

Public forecast

Using degrees Fahrenheit for public forecast. Weather courtesy of forecast.io.

METAR (pilot weather report)

Closest report is Louisa County Airport/Freeman Field, 14.8 nm (27.4 km) NNW. Retrieved 2019/09/19 10:35 UTC (0 seconds ago):

KLKU 191035Z AUTO 00000KT 10SM CLR 10/10 A3035 RMK AO2 T00990097

TAF (pilot weather forecast)

Closest forecast is Richmond International Airport, 29.5 nm (54.7 km) SE. Retrieved 2019/09/19 06:42 UTC (3 hours ago):

TAF KRIC 190540Z 1906/2006 04003KT P6SM SKC FM191500 06007KT P6SM SCT050 FM192200 10004KT P6SM SKC